Time;durP1;ratioP1;P1;durP2;ratioP2;P2;SDS_P1;SDS_P2;PMS_P1;PMS_P2;Temp;Humidity;BMP_temperature;BMP_pressure;BME280_temperature;BME280_humidity;BME280_pressure;Samples;Min_cycle;Max_cycle;Signal;HPM_P1;HPM_P2
2023/08/27 00:01:17;;;;;;;8.10;5.40;;;23.90;91.70;;;23.02;80.91;99415.38;10386307;28;98462;-94
2023/08/27 00:06:21;;;;;;;9.98;5.43;;;23.90;91.90;;;23.00;80.77;99417.53;10390090;28;96893;-94
2023/08/27 00:11:25;;;;;;;7.93;5.15;;;23.90;91.90;;;22.92;80.94;99414.28;10379087;28;98465;-94
2023/08/27 00:16:29;;;;;;;8.23;5.25;;;23.90;92.00;;;22.91;80.80;99409.13;10386845;28;96839;-96
2023/08/27 00:21:33;;;;;;;9.25;5.57;;;23.80;92.00;;;22.87;81.31;99424.28;10400509;28;96681;-95
2023/08/27 00:26:36;;;;;;;6.57;5.53;;;23.80;92.20;;;22.83;81.69;99415.03;10375320;28;96445;-95
2023/08/27 00:31:40;;;;;;;7.13;5.43;;;23.70;92.30;;;22.77;82.11;99419.63;10398890;28;98262;-94
2023/08/27 00:36:44;;;;;;;8.05;6.32;;;23.70;92.50;;;22.71;82.68;99405.25;10381762;28;96692;-94
2023/08/27 00:41:47;;;;;;;7.40;5.80;;;23.70;92.60;;;22.73;83.01;99409.59;10377499;28;96611;-94
2023/08/27 00:46:51;;;;;;;8.77;5.70;;;23.70;92.80;;;22.68;82.89;99386.84;10384122;28;96637;-95
2023/08/27 00:51:56;;;;;;;9.27;6.32;;;23.70;92.80;;;22.73;83.25;99404.16;10384325;28;98314;-96
2023/08/27 00:57:03;;;;;;;7.05;5.68;;;23.70;92.90;;;22.65;83.40;99403.59;10391798;27;96684;-93
2023/08/27 01:02:07;;;;;;;9.70;6.78;;;23.70;93.00;;;22.58;83.73;99404.94;10420109;27;97182;-93
2023/08/27 01:07:23;;;;;;;12.07;5.95;;;23.60;93.10;;;22.56;83.97;99386.25;10412891;27;96538;-94
2023/08/27 01:12:53;;;;;;;8.68;6.18;;;23.60;93.20;;;22.62;83.45;99395.22;10415015;27;96486;-95
2023/08/27 01:18:00;;;;;;;7.35;6.05;;;23.60;93.10;;;22.61;83.50;99397.13;10421626;27;97350;-94
2023/08/27 01:23:04;;;;;;;8.88;6.90;;;23.60;93.10;;;22.56;83.74;99397.09;10411130;27;97027;-95
2023/08/27 01:28:27;;;;;;;9.98;6.85;;;23.60;93.20;;;22.52;84.05;99400.59;10402274;27;96898;-95
2023/08/27 01:33:32;;;;;;;7.40;6.43;;;23.50;93.40;;;22.55;84.24;99400.03;10427504;27;96635;-94
2023/08/27 01:38:36;;;;;;;8.07;6.45;;;23.40;93.50;;;22.49;84.26;99401.94;10419038;27;97100;-93
2023/08/27 01:43:40;;;;;;;8.35;6.55;;;23.50;93.60;;;22.49;84.57;99401.94;10431579;27;96786;-94
2023/08/27 01:48:43;;;;;;;8.60;7.00;;;23.40;93.70;;;22.50;84.91;99411.69;10425084;27;96638;-94
2023/08/27 01:53:47;;;;;;;7.70;6.93;;;23.40;93.90;;;22.41;85.01;99400.53;10419399;27;96451;-94
2023/08/27 01:58:51;;;;;;;8.38;7.57;;;23.40;93.90;;;22.47;85.36;99408.69;10421753;27;97215;-96
2023/08/27 02:03:55;;;;;;;8.07;6.95;;;23.40;94.00;;;22.51;85.08;99404.38;10416782;27;96495;-94
2023/08/27 02:08:59;;;;;;;8.10;7.03;;;23.40;94.10;;;22.59;85.42;99403.84;10422674;27;97223;-93
2023/08/27 02:14:04;;;;;;;8.20;7.22;;;23.50;94.20;;;22.82;86.91;99406.09;10443833;27;96816;-94
2023/08/27 02:19:07;;;;;;;9.50;6.82;;;23.70;94.80;;;23.01;86.06;99413.75;10433046;27;96672;-94
2023/08/27 02:24:11;;;;;;;8.07;6.55;;;23.90;94.40;;;23.08;84.34;99409.69;10432139;27;96590;-94
2023/08/27 02:29:15;;;;;;;7.70;6.32;;;24.00;94.00;;;23.02;83.17;99410.75;10420201;27;96699;-95
2023/08/27 02:34:19;;;;;;;8.73;6.72;;;23.90;93.90;;;22.93;83.07;99401.56;10418013;27;97757;-94
2023/08/27 02:39:23;;;;;;;7.55;6.43;;;23.80;93.80;;;22.80;83.00;99400.16;10426965;27;96976;-94
2023/08/27 02:44:30;;;;;;;7.47;6.60;;;23.80;94.00;;;22.74;83.47;99389.56;10438527;27;96594;-94
2023/08/27 02:49:34;;;;;;;6.88;5.93;;;23.70;94.20;;;22.73;86.13;99402.31;10409353;27;96727;-93
2023/08/27 02:54:40;;;;;;;6.45;5.13;;;23.70;94.70;;;22.75;88.30;99402.84;10433303;27;96536;-91
2023/08/27 02:59:44;;;;;;;6.75;4.93;;;23.70;95.60;;;22.75;88.57;99404.72;10429483;27;96876;-92
2023/08/27 03:04:48;;;;;;;6.72;4.70;;;23.60;96.00;;;22.66;88.65;99390.88;10406803;27;96612;-94
2023/08/27 03:09:51;;;;;;;6.03;5.00;;;23.50;96.20;;;22.58;88.85;99397.63;10433749;27;96713;-94
2023/08/27 03:14:55;;;;;;;5.28;4.43;;;23.40;96.40;;;22.51;89.26;99409.81;10434376;27;96839;-93
2023/08/27 03:20:00;;;;;;;6.50;4.72;;;23.40;96.70;;;22.40;89.90;99414.34;10411875;27;98278;-92
2023/08/27 03:25:05;;;;;;;6.30;4.93;;;23.20;97.00;;;22.28;90.38;99419.16;10417240;27;96592;-93
2023/08/27 03:30:09;;;;;;;5.85;4.63;;;23.10;97.30;;;22.22;90.39;99422.94;10426999;27;96923;-92
2023/08/27 03:35:13;;;;;;;5.75;3.88;;;23.10;97.30;;;22.16;90.48;99435.63;10427928;27;97330;-92
2023/08/27 03:40:17;;;;;;;4.75;4.25;;;23.00;97.50;;;22.10;90.47;99442.88;10419214;27;98248;-94
2023/08/27 03:45:20;;;;;;;6.00;3.65;;;22.90;97.60;;;22.02;90.56;99443.38;10425927;27;96686;-91
2023/08/27 03:50:24;;;;;;;5.75;3.40;;;22.90;97.70;;;21.95;90.54;99453.59;10434914;27;97080;-91
2023/08/27 03:55:29;;;;;;;5.13;3.85;;;22.80;97.80;;;21.82;90.59;99446.72;10448343;27;97491;-89
2023/08/27 04:00:34;;;;;;;4.03;3.17;;;22.70;97.90;;;21.78;90.84;99434.00;10413357;27;96569;-93
2023/08/27 04:05:38;;;;;;;4.38;3.17;;;22.70;97.90;;;21.77;90.93;99460.22;10416338;27;97194;-93
2023/08/27 04:10:52;;;;;;;5.15;3.60;;;22.70;97.90;;;21.77;91.29;99465.66;10422051;27;97295;-93
2023/08/27 04:16:05;;;;;;;4.13;3.00;;;22.70;98.00;;;21.71;91.28;99463.97;10428081;27;96566;-94
2023/08/27 04:21:09;;;;;;;5.22;2.65;;;22.60;98.00;;;21.69;91.28;99476.09;10410963;27;96492;-93
2023/08/27 04:26:13;;;;;;;3.95;2.95;;;22.60;98.10;;;21.68;91.16;99458.25;10422637;27;98243;-94
2023/08/27 04:31:17;;;;;;;3.47;2.80;;;22.70;98.10;;;21.75;91.32;99459.66;10410937;27;96610;-93
2023/08/27 04:36:20;;;;;;;4.82;3.30;;;22.70;98.00;;;21.73;91.38;99452.88;10413171;27;96536;-94
2023/08/27 04:41:24;;;;;;;3.88;2.95;;;22.70;98.00;;;21.62;91.82;99452.00;10426779;27;97145;-94
2023/08/27 04:46:28;;;;;;;4.53;3.55;;;22.60;98.30;;;21.60;92.62;99451.44;10406516;27;96874;-94
2023/08/27 04:51:32;;;;;;;5.22;3.15;;;22.50;98.60;;;21.67;92.97;99448.53;10424902;27;96578;-94
2023/08/27 04:56:37;;;;;;;4.75;3.35;;;22.60;98.80;;;21.80;93.32;99458.88;10422676;27;97613;-94
2023/08/27 05:01:46;;;;;;;6.20;3.50;;;22.80;98.80;;;21.83;92.92;99458.34;10420710;27;96675;-94
2023/08/27 05:06:51;;;;;;;4.78;3.55;;;22.80;98.70;;;21.95;92.60;99460.88;10429636;27;96605;-94
2023/08/27 05:11:56;;;;;;;5.15;3.15;;;23.00;98.70;;;21.97;92.38;99458.75;10406285;28;96703;-94
2023/08/27 05:17:01;;;;;;;3.55;3.10;;;23.00;98.80;;;22.06;92.39;99473.41;10430306;27;97489;-94
2023/08/27 05:22:17;;;;;;;3.65;3.28;;;23.10;98.60;;;22.17;92.74;99483.25;10414529;27;96884;-94
2023/08/27 05:27:22;;;;;;;3.92;3.53;;;23.10;98.70;;;22.25;92.17;99476.50;10400877;27;97913;-94
2023/08/27 05:32:26;;;;;;;4.78;3.70;;;23.20;98.60;;;22.36;92.13;99468.19;10394807;27;98209;-94
2023/08/27 05:37:30;;;;;;;3.75;3.28;;;23.30;98.60;;;22.50;91.76;99470.44;10416787;27;98265;-93
2023/08/27 05:42:33;;;;;;;5.43;3.15;;;23.40;98.50;;;22.57;91.36;99461.00;10436907;27;98348;-94
2023/08/27 05:47:37;;;;;;;4.40;3.17;;;23.50;98.50;;;22.71;91.00;99481.09;10423314;27;96723;-94
2023/08/27 05:52:40;;;;;;;3.55;2.92;;;23.60;98.60;;;22.82;90.99;99473.00;10407505;27;96698;-94
2023/08/27 05:57:44;;;;;;;3.22;2.78;;;23.70;98.60;;;22.98;90.38;99466.59;10415646;27;98632;-92
2023/08/27 06:02:48;;;;;;;3.83;2.75;;;23.90;98.30;;;23.10;88.93;99456.31;10395955;27;98216;-92
2023/08/27 06:07:51;;;;;;;4.40;3.78;;;24.00;98.10;;;23.20;88.58;99441.94;10402443;27;98559;-94
2023/08/27 06:12:57;;;;;;;4.55;3.58;;;24.10;97.90;;;23.32;87.45;99441.69;10407077;27;96860;-95
2023/08/27 06:18:03;;;;;;;5.30;3.50;;;24.30;97.70;;;23.47;87.25;99447.94;10399813;27;96566;-95
2023/08/27 06:23:07;;;;;;;9.32;3.90;;;24.50;97.40;;;23.65;86.77;99437.69;10406494;27;98346;-92
2023/08/27 06:28:11;;;;;;;5.82;3.75;;;24.60;97.30;;;23.89;86.28;99452.31;10399779;27;98380;-93
2023/08/27 06:33:14;;;;;;;4.28;3.67;;;24.80;97.20;;;24.10;86.14;99442.22;10404009;27;97123;-92
2023/08/27 06:38:18;;;;;;;4.38;3.80;;;25.10;97.10;;;24.28;85.00;99447.03;10403925;27;97759;-93
2023/08/27 06:43:22;;;;;;;4.80;3.53;;;25.30;96.60;;;24.42;84.43;99449.22;10406893;27;98021;-93
2023/08/27 06:48:26;;;;;;;4.78;3.00;;;25.40;96.40;;;24.63;83.92;99430.94;10416486;27;98199;-93
2023/08/27 06:53:30;;;;;;;5.47;3.47;;;25.70;96.30;;;24.77;81.57;99410.19;10408895;27;98059;-94
2023/08/27 06:58:33;;;;;;;5.30;3.65;;;25.80;95.60;;;24.98;80.76;99414.44;10409056;27;97454;-94
2023/08/27 07:03:38;;;;;;;6.57;4.15;;;26.00;95.60;;;25.12;80.48;99409.19;10419140;27;96815;-93
2023/08/27 07:08:41;;;;;;;4.50;4.03;;;26.20;95.40;;;25.34;79.55;99423.19;10428626;27;98318;-95
2023/08/27 07:13:45;;;;;;;6.68;4.32;;;26.40;95.00;;;25.52;79.40;99418.94;10400379;27;98595;-93
2023/08/27 07:18:52;;;;;;;7.25;4.00;;;26.60;94.90;;;25.69;78.34;99428.63;10409920;27;97107;-93
2023/08/27 07:23:57;;;;;;;6.22;4.20;;;26.70;94.60;;;25.82;77.30;99423.34;10404930;27;98182;-93
2023/08/27 07:29:00;;;;;;;5.07;4.40;;;26.90;94.30;;;26.09;75.68;99427.44;10420808;27;98281;-95
2023/08/27 07:34:04;;;;;;;5.53;4.10;;;27.10;93.90;;;26.29;74.55;99426.38;10412135;27;96835;-95
2023/08/27 07:39:08;;;;;;;4.90;4.22;;;27.30;93.70;;;26.39;74.39;99421.63;10422338;27;97065;-93
2023/08/27 07:44:12;;;;;;;6.63;4.20;;;27.40;93.50;;;26.47;73.52;99413.94;10416852;27;96532;-93
2023/08/27 07:49:17;;;;;;;7.50;4.30;;;27.50;93.30;;;26.62;73.77;99403.66;10429744;27;96718;-94
2023/08/27 07:54:20;;;;;;;6.00;3.80;;;27.70;93.00;;;26.82;72.44;99399.03;10416628;27;96710;-93
2023/08/27 07:59:24;;;;;;;5.38;3.90;;;27.80;92.80;;;26.98;72.50;99388.69;10404897;27;98788;-92
2023/08/27 08:04:27;;;;;;;5.30;4.22;;;27.90;92.80;;;27.14;72.31;99388.22;10413739;27;96998;-94
2023/08/27 08:09:31;;;;;;;7.07;4.65;;;28.10;92.60;;;27.26;71.25;99387.75;10401426;27;96877;-94
2023/08/27 08:14:35;;;;;;;7.43;5.00;;;28.30;92.40;;;27.53;70.77;99388.94;10405432;27;97474;-94
2023/08/27 08:19:39;;;;;;;6.90;4.88;;;28.50;92.20;;;27.65;70.28;99375.63;10416231;27;97181;-95
2023/08/27 08:24:43;;;;;;;6.40;5.30;;;28.70;91.90;;;27.81;68.61;99374.25;10432318;27;97937;-94
2023/08/27 08:29:47;;;;;;;7.20;5.32;;;28.80;91.50;;;27.94;68.22;99373.47;10412536;27;97022;-93
2023/08/27 08:34:50;;;;;;;5.75;5.07;;;29.00;91.20;;;28.05;67.69;99371.34;10418612;27;96749;-93
2023/08/27 08:39:54;;;;;;;6.32;5.18;;;29.10;91.10;;;28.18;67.01;99369.72;10404930;27;97370;-92
2023/08/27 08:45:37;;;;;;;5.80;5.00;;;29.30;90.60;;;28.45;67.18;99377.94;10407178;27;96766;-93
2023/08/27 08:50:42;;;;;;;5.00;4.47;;;29.50;90.90;;;28.68;65.31;99365.13;10415942;27;96970;-94
2023/08/27 08:55:50;;;;;;;9.40;5.15;;;29.70;90.20;;;28.82;63.91;99354.16;10413947;27;97841;-93
2023/08/27 09:00:57;;;;;;;6.30;5.63;;;29.90;89.40;;;29.01;63.90;99349.34;10415652;27;96730;-91
2023/08/27 09:06:02;;;;;;;6.05;5.45;;;30.00;88.70;;;29.26;63.42;99345.16;10417789;27;96567;-94
2023/08/27 09:11:06;;;;;;;14.98;9.52;;;30.30;88.50;;;29.47;60.76;99347.41;10434193;27;96710;-96
2023/08/27 09:16:10;;;;;;;8.88;6.88;;;30.60;86.70;;;29.56;60.45;99340.84;10423720;27;96537;-95
2023/08/27 09:21:14;;;;;;;8.00;6.57;;;30.60;86.00;;;29.79;60.98;99338.06;10424233;27;96678;-95
2023/08/27 09:26:26;;;;;;;7.50;6.70;;;30.90;86.20;;;29.99;57.72;99334.78;10443747;27;96849;-94
2023/08/27 09:31:37;;;;;;;8.30;6.20;;;31.10;83.60;;;30.31;56.39;99333.59;10412892;27;97189;-95
2023/08/27 09:36:53;;;;;;;6.70;5.88;;;31.30;82.30;;;30.57;55.16;99328.13;10416782;27;97403;-95
2023/08/27 09:42:00;;;;;;;6.32;5.70;;;31.60;80.60;;;30.86;53.54;99315.75;10424550;27;96810;-95
2023/08/27 09:47:10;;;;;;;9.15;5.72;;;31.90;79.50;;;31.16;51.83;99331.19;10406961;27;97708;-94
2023/08/27 09:52:26;;;;;;;8.95;6.70;;;32.20;78.10;;;31.36;51.16;99329.72;10415142;27;96546;-94
2023/08/27 09:57:33;;;;;;;8.82;6.60;;;32.30;76.90;;;31.52;50.24;99318.22;10412226;27;96724;-94
2023/08/27 10:02:36;;;;;;;8.40;6.55;;;32.50;75.90;;;31.65;49.17;99320.75;10432083;27;97215;-93
2023/08/27 10:07:40;;;;;;;6.70;6.10;;;32.60;75.10;;;31.92;48.73;99324.22;10428402;27;96984;-94
2023/08/27 10:12:44;;;;;;;6.78;6.18;;;32.80;73.80;;;32.20;47.36;99322.59;10416441;27;96682;-94
2023/08/27 10:17:49;;;;;;;7.45;6.75;;;33.10;72.60;;;32.40;45.84;99315.56;10414192;27;96717;-92
2023/08/27 10:22:55;;;;;;;8.20;6.85;;;33.40;71.90;;;32.60;46.06;99308.44;10417222;27;98592;-93
2023/08/27 10:27:59;;;;;;;7.43;6.72;;;33.60;70.90;;;32.88;44.96;99300.47;10414078;27;97591;-93
2023/08/27 10:33:08;;;;;;;7.03;6.32;;;33.80;70.10;;;33.05;44.91;99290.41;10420150;27;98009;-95
2023/08/27 10:38:13;;;;;;;8.80;6.68;;;34.00;69.70;;;33.19;44.56;99286.22;10428899;27;96694;-91
2023/08/27 10:43:19;;;;;;;8.48;6.38;;;34.10;69.10;;;33.37;43.47;99273.06;10431243;27;96577;-91
2023/08/27 10:48:25;;;;;;;7.10;6.32;;;34.20;67.90;;;33.48;43.07;99266.00;10413183;27;98630;-92
2023/08/27 10:53:45;;;;;;;8.50;6.68;;;34.40;67.50;;;33.66;42.98;99261.09;10414635;27;98709;-91
2023/08/27 10:58:48;;;;;;;9.57;6.15;;;34.50;67.50;;;33.83;42.80;99257.28;10422897;27;97608;-91
2023/08/27 11:04:01;;;;;;;8.40;6.68;;;34.70;66.70;;;33.90;41.63;99256.72;10426082;27;97162;-93
2023/08/27 11:09:43;;;;;;;8.15;6.47;;;34.80;65.60;;;34.03;41.31;99255.56;10400516;27;96479;-93
2023/08/27 11:14:47;;;;;;;8.32;6.65;;;34.90;65.50;;;34.16;40.68;99251.63;10395104;27;97404;-92
2023/08/27 11:19:51;;;;;;;7.63;6.45;;;35.00;64.60;;;34.32;40.93;99252.53;10409125;27;96849;-92
2023/08/27 11:24:56;;;;;;;10.52;7.00;;;35.10;64.40;;;34.49;39.68;99258.94;10435923;27;96502;-91
2023/08/27 11:30:01;;;;;;;11.13;6.78;;;35.30;63.10;;;34.61;39.58;99247.88;10428955;27;96976;-93
2023/08/27 11:35:06;;;;;;;7.70;6.60;;;35.40;63.30;;;34.86;39.44;99254.88;10420731;27;97546;-90
2023/08/27 11:40:15;;;;;;;7.30;6.43;;;35.60;63.10;;;34.95;38.06;99257.47;10432844;27;96811;-92
2023/08/27 11:45:30;;;;;;;9.38;6.50;;;35.80;61.40;;;35.13;37.27;99242.19;10414109;27;98134;-93
2023/08/27 11:50:40;;;;;;;7.28;6.32;;;36.00;60.40;;;35.34;36.67;99235.63;10433393;27;97020;-92
2023/08/27 11:55:44;;;;;;;7.03;6.40;;;36.30;59.90;;;35.53;36.79;99238.50;10402950;27;97634;-93
2023/08/27 12:00:54;;;;;;;7.35;6.65;;;36.50;59.60;;;35.82;35.65;99244.69;10420022;27;96883;-93
2023/08/27 12:06:00;;;;;;;6.93;6.25;;;36.70;58.80;;;36.05;35.39;99242.09;10438548;27;96997;-94
2023/08/27 12:11:04;;;;;;;9.18;6.93;;;36.80;58.60;;;36.05;34.87;99237.34;10418984;27;98091;-94
2023/08/27 12:16:08;;;;;;;7.50;6.43;;;36.90;57.70;;;36.22;34.68;99241.66;10412088;27;98769;-93
2023/08/27 12:21:12;;;;;;;7.57;6.70;;;36.90;57.60;;;36.07;33.86;99234.22;10423562;27;96756;-94
2023/08/27 12:26:15;;;;;;;6.45;5.65;;;36.90;56.20;;;36.09;34.42;99235.44;10417763;27;99660;-92
2023/08/27 12:31:24;;;;;;;6.57;5.97;;;37.00;56.60;;;36.10;33.62;99225.19;10402223;27;99071;-93
2023/08/27 12:36:29;;;;;;;6.05;5.35;;;37.10;56.00;;;36.11;34.22;99229.59;10418329;27;97564;-94
2023/08/27 12:41:34;;;;;;;7.53;5.75;;;37.10;56.10;;;36.06;33.19;99232.63;10422131;27;96545;-93
2023/08/27 12:46:38;;;;;;;8.32;6.40;;;37.10;54.90;;;35.92;32.89;99228.38;10435589;27;96856;-94
2023/08/27 12:51:43;;;;;;;7.32;5.97;;;36.90;54.60;;;35.88;33.78;99224.72;10412166;27;96535;-93
2023/08/27 12:56:47;;;;;;;7.47;6.40;;;36.80;55.30;;;35.84;33.74;99221.06;10411724;27;99442;-92
2023/08/27 13:01:51;;;;;;;7.38;6.10;;;36.70;55.40;;;35.87;33.69;99208.50;10420302;27;98151;-91
2023/08/27 13:06:55;;;;;;;6.15;5.55;;;36.70;55.40;;;35.95;34.61;99204.75;10406969;27;96420;-95
2023/08/27 13:11:59;;;;;;;8.07;6.50;;;36.70;56.30;;;35.90;34.46;99205.78;10416395;27;97223;-94
2023/08/27 13:17:03;;;;;;;7.90;6.45;;;36.70;56.00;;;35.87;34.68;99197.44;10402016;27;97508;-92
2023/08/27 13:22:07;;;;;;;6.95;6.05;;;36.60;56.30;;;35.72;34.56;99196.28;10401455;27;98387;-93
2023/08/27 13:27:12;;;;;;;7.78;6.15;;;36.50;56.10;;;35.65;34.91;99190.63;10411896;27;97124;-93
2023/08/27 13:32:16;;;;;;;8.40;7.03;;;36.50;56.10;;;35.71;34.89;99180.09;10431393;27;98590;-91
2023/08/27 13:37:19;;;;;;;6.68;6.07;;;36.50;55.80;;;35.80;35.07;99181.47;10408241;27;98230;-90
2023/08/27 13:42:24;;;;;;;8.80;6.75;;;36.60;56.20;;;35.88;34.57;99179.69;10432243;27;97966;-92
2023/08/27 13:47:28;;;;;;;8.90;7.45;;;36.80;55.40;;;35.95;32.84;99170.78;10405050;27;96810;-92
2023/08/27 13:52:32;;;;;;;8.38;6.78;;;36.90;54.30;;;35.86;31.98;99168.97;10427470;27;97143;-92
2023/08/27 13:57:36;;;;;;;8.10;6.80;;;36.80;53.40;;;35.79;30.55;99159.72;10426084;27;97755;-93
2023/08/27 14:02:40;;;;;;;7.03;6.32;;;36.70;52.10;;;35.77;30.11;99157.31;10416084;27;98867;-95
2023/08/27 14:07:43;;;;;;;7.43;6.55;;;36.60;51.30;;;35.76;29.94;99155.72;10404370;27;98603;-94
2023/08/27 14:12:49;;;;;;;7.93;7.03;;;36.60;50.90;;;35.76;29.26;99164.03;10411349;27;98628;-92
2023/08/27 14:17:53;;;;;;;10.18;6.97;;;36.60;50.50;;;35.76;29.48;99147.44;10422188;27;97794;-94
2023/08/27 14:22:56;;;;;;;8.25;6.60;;;36.70;50.10;;;36.00;30.12;99151.94;10428535;27;96746;-92
2023/08/27 14:28:00;;;;;;;7.05;6.35;;;37.00;50.40;;;36.48;29.14;99138.69;10422118;27;96607;-93
2023/08/27 14:33:04;;;;;;;8.88;6.80;;;37.80;49.70;;;36.96;28.65;99128.88;10414004;27;96580;-95
2023/08/27 14:38:08;;;;;;;7.97;7.18;;;38.60;48.80;;;37.32;27.71;99125.88;10424255;27;96656;-95
2023/08/27 14:43:12;;;;;;;7.00;6.00;;;39.10;47.80;;;37.83;28.10;99128.22;10421627;27;96984;-92
2023/08/27 14:48:15;;;;;;;6.60;6.00;;;39.50;48.30;;;38.25;27.19;99123.19;10409974;27;97046;-91
2023/08/27 14:53:19;;;;;;;7.63;6.32;;;40.00;47.50;;;38.60;26.70;99123.97;10398783;27;96576;-95
2023/08/27 14:58:22;;;;;;;7.75;6.97;;;40.40;46.80;;;38.92;26.33;99127.06;10423803;27;96674;-92
2023/08/27 15:03:29;;;;;;;6.40;5.80;;;40.60;46.60;;;39.11;25.72;99123.25;10415534;27;96772;-91
2023/08/27 15:08:33;;;;;;;6.85;6.25;;;40.80;46.10;;;39.05;24.24;99129.19;10426840;27;98246;-93
2023/08/27 15:13:40;;;;;;;8.55;6.40;;;40.80;44.80;;;39.02;25.01;99121.59;10415923;27;96782;-96
2023/08/27 15:18:58;;;;;;;9.65;6.55;;;40.70;44.70;;;38.94;25.04;99119.97;10276535;28;98131;-85
2023/08/27 15:24:02;;;;;;;6.80;5.93;;;40.60;44.80;;;39.03;24.78;99114.88;10292413;28;97492;-86
2023/08/27 15:29:06;;;;;;;6.55;5.82;;;40.50;44.80;;;38.88;25.12;99120.72;10315057;28;96712;-85
2023/08/27 15:34:11;;;;;;;7.82;6.30;;;40.30;44.80;;;38.71;24.80;99114.56;10299587;28;96888;-95
2023/08/27 15:39:15;;;;;;;7.07;6.32;;;40.20;44.80;;;38.47;24.90;99117.91;10291419;28;96554;-85
2023/08/27 15:44:19;;;;;;;6.70;6.05;;;39.90;44.70;;;38.54;25.33;99115.19;10290366;28;97857;-85
2023/08/27 15:49:23;;;;;;;7.45;5.88;;;39.80;45.30;;;38.60;25.80;99123.97;10288448;28;96687;-84
2023/08/27 15:54:27;;;;;;;6.82;6.22;;;39.80;45.30;;;38.41;26.15;99119.44;10293407;28;96893;-85
2023/08/27 15:59:31;;;;;;;7.25;6.35;;;39.60;45.40;;;38.44;26.57;99107.56;10294462;28;96766;-85
2023/08/27 16:04:36;;;;;;;7.18;6.07;;;39.50;46.40;;;38.37;26.73;99113.84;10293130;28;96631;-84
2023/08/27 16:09:41;;;;;;;6.88;5.70;;;39.50;46.50;;;38.03;26.92;99110.28;10291553;28;96975;-85
2023/08/27 16:14:44;;;;;;;6.68;5.80;;;39.20;46.50;;;37.59;27.59;99101.75;10273668;28;98059;-84
2023/08/27 16:19:48;;;;;;;7.55;6.72;;;38.70;47.10;;;37.00;28.05;99104.00;10287230;28;97527;-84
2023/08/27 16:24:51;;;;;;;6.50;5.88;;;38.20;47.40;;;36.54;29.18;99104.00;10267305;28;98294;-85
2023/08/27 16:29:55;;;;;;;7.68;6.70;;;37.60;48.60;;;36.00;30.41;99109.66;10292221;28;97294;-85
2023/08/27 16:34:59;;;;;;;7.50;5.97;;;37.10;49.30;;;35.44;30.67;99110.00;10292032;28;97456;-85
2023/08/27 16:40:04;;;;;;;8.05;5.90;;;36.50;49.60;;;34.94;31.50;99111.56;10287369;28;96862;-85
2023/08/27 16:45:08;;;;;;;25.45;7.55;;;36.00;50.30;;;34.47;32.74;99104.81;10283780;28;97117;-84
2023/08/27 16:50:12;;;;;;;9.75;6.07;;;35.50;51.50;;;34.04;33.84;99100.06;10276636;28;97099;-84
2023/08/27 16:55:15;;;;;;;8.48;6.35;;;35.00;51.90;;;33.60;34.25;99110.97;10285539;28;98514;-85
2023/08/27 17:00:20;;;;;;;7.53;6.72;;;34.50;52.60;;;33.09;35.21;99110.50;10280987;28;97778;-84
2023/08/27 17:05:24;;;;;;;9.43;6.53;;;34.10;53.40;;;32.72;36.21;99104.16;10279980;28;98440;-84
2023/08/27 17:10:27;;;;;;;6.90;6.20;;;33.70;54.30;;;32.37;37.58;99103.72;10267650;28;96693;-84
2023/08/27 17:15:31;;;;;;;7.72;6.70;;;33.20;55.10;;;31.97;38.14;99112.50;10285896;28;97974;-84
2023/08/27 17:20:36;;;;;;;10.77;6.72;;;32.80;55.90;;;31.59;38.71;99107.88;10293764;28;98199;-84
2023/08/27 17:25:41;;;;;;;7.00;6.40;;;32.50;56.60;;;31.22;39.24;99103.25;10281882;28;97397;-84
2023/08/27 17:30:44;;;;;;;7.43;6.10;;;32.10;56.80;;;30.84;39.81;99110.38;10281015;28;98669;-91
2023/08/27 17:35:48;;;;;;;7.65;6.32;;;31.80;57.10;;;30.49;40.46;99119.81;10257723;28;97798;-91
2023/08/27 17:40:53;;;;;;;9.25;6.53;;;31.50;57.40;;;30.20;40.73;99124.03;10285503;28;97076;-91
2023/08/27 17:45:56;;;;;;;6.53;5.88;;;31.20;57.80;;;29.95;41.78;99122.09;10292297;28;98312;-89
2023/08/27 17:51:02;;;;;;;8.32;6.30;;;30.90;58.40;;;29.78;42.32;99131.09;10279603;28;96904;-90
2023/08/27 17:56:05;;;;;;;10.77;7.15;;;30.70;59.40;;;29.51;43.31;99141.19;10286502;28;96613;-90
2023/08/27 18:01:09;;;;;;;7.60;6.88;;;30.40;60.10;;;29.18;44.34;99145.41;10277643;28;97041;-90
2023/08/27 18:06:14;;;;;;;7.22;6.45;;;30.00;61.10;;;28.90;44.74;99142.84;10272575;28;98016;-91
2023/08/27 18:11:17;;;;;;;8.48;7.13;;;29.70;61.70;;;28.59;46.05;99153.78;10286392;28;97309;-90
2023/08/27 18:16:21;;;;;;;10.52;6.82;;;29.40;62.70;;;28.40;46.27;99161.38;10276062;28;96798;-89
2023/08/27 18:21:25;;;;;;;9.20;7.30;;;29.20;63.30;;;28.17;47.28;99164.06;10266553;28;97568;-90
2023/08/27 18:26:28;;;;;;;8.25;7.25;;;29.00;64.10;;;28.03;47.70;99174.22;10274146;28;97716;-90
2023/08/27 18:31:32;;;;;;;8.10;7.28;;;28.80;64.80;;;27.85;49.09;99172.47;10277090;28;97285;-88
2023/08/27 18:36:36;;;;;;;10.20;7.47;;;28.70;65.50;;;27.63;50.51;99170.44;10258534;28;97089;-87
2023/08/27 18:41:41;;;;;;;10.23;6.95;;;28.50;66.50;;;27.38;51.34;99175.31;10274690;28;99424;-86
2023/08/27 18:46:45;;;;;;;8.30;7.13;;;28.20;67.30;;;27.14;52.53;99175.50;10272326;28;97552;-86
2023/08/27 18:51:48;;;;;;;9.13;7.00;;;27.90;68.00;;;26.93;53.84;99180.50;10273239;28;97676;-86
2023/08/27 18:56:52;;;;;;;9.80;7.20;;;27.70;68.90;;;26.75;54.56;99192.28;10276884;28;97884;-85
2023/08/27 19:01:55;;;;;;;8.60;7.70;;;27.50;69.80;;;26.63;55.09;99181.84;10272043;28;98195;-89
2023/08/27 19:06:59;;;;;;;9.70;7.18;;;27.40;70.00;;;26.51;55.56;99178.78;10271954;28;97979;-88
2023/08/27 19:12:04;;;;;;;9.10;7.35;;;27.30;70.30;;;26.44;55.98;99186.50;10274831;28;97694;-87
2023/08/27 19:17:07;;;;;;;8.80;7.05;;;27.20;70.70;;;26.35;56.71;99180.91;10284584;28;99557;-86
2023/08/27 19:22:12;;;;;;;9.00;7.22;;;27.20;71.00;;;26.31;57.25;99188.03;10291463;28;98292;-89
2023/08/27 19:27:15;;;;;;;9.68;7.50;;;27.10;71.40;;;26.26;57.43;99179.16;10292712;28;98188;-93
2023/08/27 19:32:19;;;;;;;8.98;7.05;;;27.00;71.60;;;26.18;57.80;99174.38;10285034;28;96978;-94
2023/08/27 19:37:23;;;;;;;7.72;6.93;;;27.00;71.80;;;26.06;57.81;99159.28;10377604;22;96799;-87
2023/08/27 19:42:27;;;;;;;10.52;8.13;;;26.90;72.10;;;26.00;57.86;99167.84;10247209;28;98416;-89
2023/08/27 19:47:31;;;;;;;8.82;7.93;;;26.80;72.30;;;25.91;58.17;99153.25;10280213;28;97358;-89
2023/08/27 19:52:41;;;;;;;9.20;7.32;;;26.70;72.80;;;25.84;58.90;99169.94;10264703;28;98372;-88
2023/08/27 19:57:44;;;;;;;8.65;7.55;;;26.60;73.20;;;25.67;59.38;99164.16;10254470;28;96965;-88
2023/08/27 20:02:48;;;;;;;9.73;7.15;;;26.50;73.40;;;25.61;59.56;99166.97;10262650;28;97096;-88
2023/08/27 20:07:52;;;;;;;9.40;7.68;;;26.50;73.60;;;25.58;59.38;99170.25;10259304;28;98649;-89
2023/08/27 20:12:55;;;;;;;7.88;7.07;;;26.40;73.70;;;25.57;59.35;99165.94;10254064;28;97977;-90
2023/08/27 20:18:01;;;;;;;9.30;7.03;;;26.40;74.10;;;25.59;59.36;99177.31;10259776;28;98600;-87
2023/08/27 20:23:06;;;;;;;9.05;7.47;;;26.40;74.10;;;25.52;59.62;99173.34;10273540;28;98253;-88
2023/08/27 20:28:18;;;;;;;9.55;8.02;;;26.30;74.30;;;25.49;60.44;99179.34;10257275;28;96964;-87
2023/08/27 20:33:22;;;;;;;8.52;7.38;;;26.30;75.00;;;25.39;61.07;99174.06;10251164;28;98091;-86
2023/08/27 20:38:27;;;;;;;16.70;12.65;;;26.20;75.10;;;25.38;61.50;99184.13;10252482;28;97077;-88
2023/08/27 20:43:34;;;;;;;13.00;9.55;;;26.20;75.70;;;25.28;61.97;99190.47;10259843;28;96770;-89
2023/08/27 20:48:38;;;;;;;9.65;8.65;;;26.20;76.10;;;25.22;62.18;99197.06;10249666;28;98419;-88
2023/08/27 20:53:42;;;;;;;9.38;8.10;;;26.10;76.40;;;25.11;62.89;99197.47;10287181;28;96644;-88
2023/08/27 20:58:45;;;;;;;8.68;7.78;;;25.90;76.90;;;24.96;63.69;99192.97;10264750;28;96837;-89
2023/08/27 21:03:49;;;;;;;8.65;7.78;;;25.80;77.30;;;24.86;63.91;99187.63;10270823;28;97765;-88
2023/08/27 21:08:53;;;;;;;8.45;7.65;;;25.60;77.60;;;24.83;64.07;99197.16;10251865;28;97093;-88